KESC/ESC METAR and TAF weather

Enter ICAO airport designator
Station Type Date Time Source
KESC METAR 2022/01/23 12:56 UTC NOAA

KESC 231256Z AUTO 28005KT 10SM CLR M16/M20 A3000 RMK AO2 SLP178 T11611200 FZRANO


Station Type Date Time Source
KESC Decoded METAR 2022/01/23 12:56 UTC NOAA

Escanaba, MI, United States (KESC) 45-45N 087-02W 187M
Jan 23, 2022 - 07:56 AM EST / 2022.01.23 1256 UTC
Wind: from the W (280 degrees) at 6 MPH (5 KT):0
Visibility: 10 mile(s):0
Sky conditions: clear
Temperature: 3.0 F (-16.1 C)
Windchill: -7 F (-22 C):2
Dew Point: -4.0 F (-20.0 C)
Relative Humidity: 71%
Pressure (altimeter): 30 in. Hg (1015 hPa)
ob: KESC 231256Z AUTO 28005KT 10SM CLR M16/M20 A3000 RMK AO2 SLP178 T11611200 FZRANO
cycle: 13

Station Type Date Time Source
KESC TAF UTC NOAA

Error!

Example: see airport list